sensor_id;sensor_type;location;lat;lon;timestamp;P1;durP1;ratioP1;P2;durP2;ratioP2
68614;SDS011;55593;51.994;5.882;2022-07-22T00:00:25;17.42;;;4.55;;
68614;SDS011;55593;51.994;5.882;2022-07-22T00:02:54;13.10;;;3.70;;
68614;SDS011;55593;51.994;5.882;2022-07-22T00:05:23;14.32;;;4.32;;
68614;SDS011;55593;51.994;5.882;2022-07-22T00:07:52;11.25;;;3.85;;
68614;SDS011;55593;51.994;5.882;2022-07-22T00:10:21;15.80;;;3.47;;
68614;SDS011;55593;51.994;5.882;2022-07-22T00:12:50;15.55;;;3.88;;
68614;SDS011;55593;51.994;5.882;2022-07-22T00:15:19;18.77;;;4.55;;
68614;SDS011;55593;51.994;5.882;2022-07-22T00:17:51;14.02;;;3.92;;
68614;SDS011;55593;51.994;5.882;2022-07-22T00:20:20;13.70;;;4.13;;
68614;SDS011;55593;51.994;5.882;2022-07-22T00:22:50;17.65;;;4.63;;
68614;SDS011;55593;51.994;5.882;2022-07-22T00:25:19;13.40;;;4.03;;
68614;SDS011;55593;51.994;5.882;2022-07-22T00:27:48;16.67;;;3.85;;
68614;SDS011;55593;51.994;5.882;2022-07-22T00:30:17;11.60;;;3.95;;
68614;SDS011;55593;51.994;5.882;2022-07-22T00:32:46;11.93;;;4.22;;
68614;SDS011;55593;51.994;5.882;2022-07-22T00:35:18;9.40;;;3.88;;
68614;SDS011;55593;51.994;5.882;2022-07-22T00:37:47;10.75;;;3.30;;
68614;SDS011;55593;51.994;5.882;2022-07-22T00:40:16;11.27;;;3.80;;
68614;SDS011;55593;51.994;5.882;2022-07-22T00:42:46;9.38;;;4.60;;
68614;SDS011;55593;51.994;5.882;2022-07-22T00:45:16;16.50;;;4.00;;
68614;SDS011;55593;51.994;5.882;2022-07-22T00:47:45;12.75;;;3.92;;
68614;SDS011;55593;51.994;5.882;2022-07-22T00:50:14;17.45;;;4.38;;
68614;SDS011;55593;51.994;5.882;2022-07-22T00:52:48;15.45;;;4.85;;
68614;SDS011;55593;51.994;5.882;2022-07-22T00:55:17;17.30;;;4.82;;
68614;SDS011;55593;51.994;5.882;2022-07-22T00:57:46;13.85;;;4.45;;
68614;SDS011;55593;51.994;5.882;2022-07-22T01:00:17;18.45;;;4.45;;
68614;SDS011;55593;51.994;5.882;2022-07-22T01:02:48;12.10;;;4.93;;
68614;SDS011;55593;51.994;5.882;2022-07-22T01:05:18;10.07;;;4.70;;
68614;SDS011;55593;51.994;5.882;2022-07-22T01:07:50;12.35;;;4.45;;
68614;SDS011;55593;51.994;5.882;2022-07-22T01:10:19;20.50;;;4.63;;
68614;SDS011;55593;51.994;5.882;2022-07-22T01:12:49;12.63;;;4.45;;
68614;SDS011;55593;51.994;5.882;2022-07-22T01:15:18;15.77;;;5.03;;
68614;SDS011;55593;51.994;5.882;2022-07-22T01:17:47;12.38;;;4.75;;
68614;SDS011;55593;51.994;5.882;2022-07-22T01:20:19;11.85;;;4.25;;
68614;SDS011;55593;51.994;5.882;2022-07-22T01:22:48;11.68;;;4.47;;
68614;SDS011;55593;51.994;5.882;2022-07-22T01:25:18;18.02;;;4.95;;
68614;SDS011;55593;51.994;5.882;2022-07-22T01:27:48;13.13;;;5.05;;
68614;SDS011;55593;51.994;5.882;2022-07-22T01:30:17;15.20;;;4.45;;
68614;SDS011;55593;51.994;5.882;2022-07-22T01:32:47;14.52;;;4.18;;
68614;SDS011;55593;51.994;5.882;2022-07-22T01:35:19;8.68;;;4.03;;
68614;SDS011;55593;51.994;5.882;2022-07-22T01:37:48;13.77;;;4.57;;
68614;SDS011;55593;51.994;5.882;2022-07-22T01:40:17;7.20;;;4.05;;
68614;SDS011;55593;51.994;5.882;2022-07-22T01:42:46;12.13;;;4.30;;
68614;SDS011;55593;51.994;5.882;2022-07-22T01:45:15;11.77;;;3.92;;
68614;SDS011;55593;51.994;5.882;2022-07-22T01:47:44;14.55;;;4.53;;
68614;SDS011;55593;51.994;5.882;2022-07-22T01:50:14;9.43;;;3.88;;
68614;SDS011;55593;51.994;5.882;2022-07-22T01:52:46;11.75;;;4.10;;
68614;SDS011;55593;51.994;5.882;2022-07-22T01:55:15;8.35;;;4.05;;
68614;SDS011;55593;51.994;5.882;2022-07-22T01:57:44;15.95;;;4.07;;
68614;SDS011;55593;51.994;5.882;2022-07-22T02:00:24;16.42;;;4.22;;
68614;SDS011;55593;51.994;5.882;2022-07-22T02:02:53;16.23;;;4.28;;
68614;SDS011;55593;51.994;5.882;2022-07-22T02:05:22;12.43;;;3.70;;
68614;SDS011;55593;51.994;5.882;2022-07-22T02:07:59;12.05;;;4.47;;
68614;SDS011;55593;51.994;5.882;2022-07-22T02:10:34;14.52;;;4.72;;
68614;SDS011;55593;51.994;5.882;2022-07-22T02:13:03;9.20;;;4.50;;
68614;SDS011;55593;51.994;5.882;2022-07-22T02:15:33;15.98;;;5.00;;
68614;SDS011;55593;51.994;5.882;2022-07-22T02:18:08;15.80;;;4.55;;
68614;SDS011;55593;51.994;5.882;2022-07-22T02:20:41;10.60;;;4.43;;
68614;SDS011;55593;51.994;5.882;2022-07-22T02:23:13;13.07;;;4.32;;
68614;SDS011;55593;51.994;5.882;2022-07-22T02:25:42;8.75;;;3.60;;
68614;SDS011;55593;51.994;5.882;2022-07-22T02:28:11;11.48;;;3.92;;
68614;SDS011;55593;51.994;5.882;2022-07-22T02:30:40;9.43;;;4.03;;
68614;SDS011;55593;51.994;5.882;2022-07-22T02:33:10;13.40;;;4.68;;
68614;SDS011;55593;51.994;5.882;2022-07-22T02:35:40;13.02;;;4.03;;
68614;SDS011;55593;51.994;5.882;2022-07-22T02:38:09;12.68;;;4.53;;
68614;SDS011;55593;51.994;5.882;2022-07-22T02:40:42;8.77;;;4.40;;
68614;SDS011;55593;51.994;5.882;2022-07-22T02:43:11;15.02;;;4.65;;
68614;SDS011;55593;51.994;5.882;2022-07-22T02:45:40;10.40;;;4.35;;
68614;SDS011;55593;51.994;5.882;2022-07-22T02:48:09;11.90;;;4.07;;
68614;SDS011;55593;51.994;5.882;2022-07-22T02:50:44;12.32;;;4.05;;
68614;SDS011;55593;51.994;5.882;2022-07-22T02:53:20;18.38;;;4.38;;
68614;SDS011;55593;51.994;5.882;2022-07-22T02:55:50;10.30;;;4.60;;
68614;SDS011;55593;51.994;5.882;2022-07-22T02:58:19;11.38;;;4.50;;
68614;SDS011;55593;51.994;5.882;2022-07-22T03:00:49;14.32;;;3.97;;
68614;SDS011;55593;51.994;5.882;2022-07-22T03:03:18;12.75;;;4.70;;
68614;SDS011;55593;51.994;5.882;2022-07-22T03:05:48;8.75;;;4.22;;
68614;SDS011;55593;51.994;5.882;2022-07-22T03:08:32;14.40;;;5.10;;
68614;SDS011;55593;51.994;5.882;2022-07-22T03:11:01;12.32;;;4.40;;
68614;SDS011;55593;51.994;5.882;2022-07-22T03:13:30;9.25;;;3.85;;
68614;SDS011;55593;51.994;5.882;2022-07-22T03:16:00;9.88;;;3.97;;
68614;SDS011;55593;51.994;5.882;2022-07-22T03:18:29;11.20;;;4.32;;
68614;SDS011;55593;51.994;5.882;2022-07-22T03:20:59;8.23;;;3.95;;
68614;SDS011;55593;51.994;5.882;2022-07-22T03:23:28;10.90;;;3.67;;
68614;SDS011;55593;51.994;5.882;2022-07-22T03:26:00;13.32;;;5.30;;
68614;SDS011;55593;51.994;5.882;2022-07-22T03:28:30;9.70;;;3.92;;
68614;SDS011;55593;51.994;5.882;2022-07-22T03:30:59;10.18;;;4.35;;
68614;SDS011;55593;51.994;5.882;2022-07-22T03:33:28;15.85;;;4.60;;
68614;SDS011;55593;51.994;5.882;2022-07-22T03:35:57;10.43;;;4.13;;
68614;SDS011;55593;51.994;5.882;2022-07-22T03:38:27;13.65;;;4.50;;
68614;SDS011;55593;51.994;5.882;2022-07-22T03:40:57;11.23;;;4.35;;
68614;SDS011;55593;51.994;5.882;2022-07-22T03:43:28;10.27;;;4.35;;
68614;SDS011;55593;51.994;5.882;2022-07-22T03:46:00;11.98;;;4.72;;
68614;SDS011;55593;51.994;5.882;2022-07-22T03:48:29;14.05;;;4.68;;
68614;SDS011;55593;51.994;5.882;2022-07-22T03:50:58;11.95;;;4.68;;
68614;SDS011;55593;51.994;5.882;2022-07-22T03:53:28;13.73;;;4.88;;
68614;SDS011;55593;51.994;5.882;2022-07-22T03:55:58;9.25;;;3.65;;
68614;SDS011;55593;51.994;5.882;2022-07-22T03:58:32;8.52;;;3.72;;
68614;SDS011;55593;51.994;5.882;2022-07-22T04:01:01;13.20;;;4.85;;
68614;SDS011;55593;51.994;5.882;2022-07-22T04:03:30;10.90;;;4.88;;
68614;SDS011;55593;51.994;5.882;2022-07-22T04:06:08;12.95;;;4.03;;
68614;SDS011;55593;51.994;5.882;2022-07-22T04:08:45;12.18;;;4.35;;
68614;SDS011;55593;51.994;5.882;2022-07-22T04:11:14;8.65;;;4.38;;
68614;SDS011;55593;51.994;5.882;2022-07-22T04:13:46;7.68;;;4.60;;
68614;SDS011;55593;51.994;5.882;2022-07-22T04:16:16;14.40;;;4.55;;
68614;SDS011;55593;51.994;5.882;2022-07-22T04:18:55;8.23;;;4.22;;
68614;SDS011;55593;51.994;5.882;2022-07-22T04:21:43;16.13;;;4.82;;
68614;SDS011;55593;51.994;5.882;2022-07-22T04:24:13;10.98;;;4.40;;
68614;SDS011;55593;51.994;5.882;2022-07-22T04:26:42;9.13;;;4.30;;
68614;SDS011;55593;51.994;5.882;2022-07-22T04:29:14;12.80;;;4.70;;
68614;SDS011;55593;51.994;5.882;2022-07-22T04:31:43;12.02;;;4.70;;
68614;SDS011;55593;51.994;5.882;2022-07-22T04:34:15;17.00;;;5.22;;
68614;SDS011;55593;51.994;5.882;2022-07-22T04:36:46;16.40;;;5.18;;
68614;SDS011;55593;51.994;5.882;2022-07-22T04:39:15;13.52;;;4.18;;
68614;SDS011;55593;51.994;5.882;2022-07-22T04:41:50;12.55;;;3.95;;
68614;SDS011;55593;51.994;5.882;2022-07-22T04:44:23;9.50;;;3.47;;
68614;SDS011;55593;51.994;5.882;2022-07-22T04:46:52;11.63;;;4.10;;
68614;SDS011;55593;51.994;5.882;2022-07-22T04:49:21;9.52;;;3.90;;
68614;SDS011;55593;51.994;5.882;2022-07-22T04:51:52;9.35;;;3.13;;
68614;SDS011;55593;51.994;5.882;2022-07-22T04:54:32;8.27;;;4.03;;
68614;SDS011;55593;51.994;5.882;2022-07-22T04:57:01;10.70;;;3.90;;
68614;SDS011;55593;51.994;5.882;2022-07-22T04:59:33;9.45;;;3.10;;
68614;SDS011;55593;51.994;5.882;2022-07-22T05:02:02;8.95;;;2.78;;
68614;SDS011;55593;51.994;5.882;2022-07-22T05:04:31;7.28;;;3.10;;
68614;SDS011;55593;51.994;5.882;2022-07-22T05:07:02;9.20;;;3.03;;
68614;SDS011;55593;51.994;5.882;2022-07-22T05:09:31;9.75;;;2.80;;
68614;SDS011;55593;51.994;5.882;2022-07-22T05:12:00;9.88;;;3.83;;
68614;SDS011;55593;51.994;5.882;2022-07-22T05:14:34;11.15;;;3.05;;
68614;SDS011;55593;51.994;5.882;2022-07-22T05:17:04;8.60;;;3.08;;
68614;SDS011;55593;51.994;5.882;2022-07-22T05:19:45;8.85;;;2.58;;
68614;SDS011;55593;51.994;5.882;2022-07-22T05:22:14;12.00;;;3.25;;
68614;SDS011;55593;51.994;5.882;2022-07-22T05:24:44;6.57;;;2.67;;
68614;SDS011;55593;51.994;5.882;2022-07-22T05:27:14;8.48;;;3.28;;
68614;SDS011;55593;51.994;5.882;2022-07-22T05:29:46;8.65;;;4.05;;
68614;SDS011;55593;51.994;5.882;2022-07-22T05:32:15;9.80;;;3.33;;
68614;SDS011;55593;51.994;5.882;2022-07-22T05:34:46;11.10;;;3.03;;
68614;SDS011;55593;51.994;5.882;2022-07-22T05:37:15;10.57;;;3.30;;
68614;SDS011;55593;51.994;5.882;2022-07-22T05:39:44;10.27;;;3.20;;
68614;SDS011;55593;51.994;5.882;2022-07-22T05:42:14;11.48;;;2.88;;
68614;SDS011;55593;51.994;5.882;2022-07-22T05:44:45;17.27;;;3.28;;
68614;SDS011;55593;51.994;5.882;2022-07-22T05:47:15;14.40;;;3.15;;
68614;SDS011;55593;51.994;5.882;2022-07-22T05:49:44;10.15;;;2.60;;
68614;SDS011;55593;51.994;5.882;2022-07-22T05:52:13;8.95;;;3.03;;
68614;SDS011;55593;51.994;5.882;2022-07-22T05:54:42;10.73;;;3.05;;
68614;SDS011;55593;51.994;5.882;2022-07-22T05:57:12;11.48;;;3.47;;
68614;SDS011;55593;51.994;5.882;2022-07-22T05:59:42;13.93;;;3.65;;
68614;SDS011;55593;51.994;5.882;2022-07-22T06:02:14;12.23;;;3.20;;
68614;SDS011;55593;51.994;5.882;2022-07-22T06:04:46;9.67;;;3.17;;
68614;SDS011;55593;51.994;5.882;2022-07-22T06:07:17;12.93;;;3.08;;
68614;SDS011;55593;51.994;5.882;2022-07-22T06:09:52;11.27;;;2.92;;
68614;SDS011;55593;51.994;5.882;2022-07-22T06:12:21;11.38;;;2.83;;
68614;SDS011;55593;51.994;5.882;2022-07-22T06:14:50;10.07;;;3.03;;
68614;SDS011;55593;51.994;5.882;2022-07-22T06:17:22;16.02;;;3.10;;
68614;SDS011;55593;51.994;5.882;2022-07-22T06:19:52;13.00;;;3.63;;
68614;SDS011;55593;51.994;5.882;2022-07-22T06:22:21;10.23;;;3.45;;
68614;SDS011;55593;51.994;5.882;2022-07-22T06:24:50;9.20;;;3.03;;
68614;SDS011;55593;51.994;5.882;2022-07-22T06:27:19;11.48;;;3.35;;
68614;SDS011;55593;51.994;5.882;2022-07-22T06:29:50;9.45;;;2.90;;
68614;SDS011;55593;51.994;5.882;2022-07-22T06:32:21;15.70;;;3.08;;
68614;SDS011;55593;51.994;5.882;2022-07-22T06:34:50;9.45;;;2.88;;
68614;SDS011;55593;51.994;5.882;2022-07-22T06:37:20;12.15;;;2.90;;
68614;SDS011;55593;51.994;5.882;2022-07-22T06:39:49;8.00;;;2.83;;
68614;SDS011;55593;51.994;5.882;2022-07-22T06:42:22;11.90;;;2.60;;
68614;SDS011;55593;51.994;5.882;2022-07-22T06:45:09;8.35;;;2.60;;
68614;SDS011;55593;51.994;5.882;2022-07-22T06:47:57;7.20;;;2.58;;
68614;SDS011;55593;51.994;5.882;2022-07-22T06:50:26;8.60;;;2.92;;
68614;SDS011;55593;51.994;5.882;2022-07-22T06:52:56;9.20;;;2.83;;
68614;SDS011;55593;51.994;5.882;2022-07-22T06:55:25;6.53;;;2.13;;
68614;SDS011;55593;51.994;5.882;2022-07-22T06:58:03;11.60;;;2.70;;
68614;SDS011;55593;51.994;5.882;2022-07-22T07:00:33;7.57;;;2.47;;
68614;SDS011;55593;51.994;5.882;2022-07-22T07:03:19;10.00;;;3.03;;
68614;SDS011;55593;51.994;5.882;2022-07-22T07:05:52;7.97;;;2.53;;
68614;SDS011;55593;51.994;5.882;2022-07-22T07:08:22;7.40;;;2.40;;
68614;SDS011;55593;51.994;5.882;2022-07-22T07:10:51;9.13;;;2.80;;
68614;SDS011;55593;51.994;5.882;2022-07-22T07:13:21;10.35;;;2.60;;
68614;SDS011;55593;51.994;5.882;2022-07-22T07:15:51;7.13;;;2.72;;
68614;SDS011;55593;51.994;5.882;2022-07-22T07:18:23;9.48;;;2.58;;
68614;SDS011;55593;51.994;5.882;2022-07-22T07:20:52;9.40;;;2.78;;
68614;SDS011;55593;51.994;5.882;2022-07-22T07:23:21;9.50;;;2.60;;
68614;SDS011;55593;51.994;5.882;2022-07-22T07:25:50;5.55;;;2.35;;
68614;SDS011;55593;51.994;5.882;2022-07-22T07:28:19;8.75;;;2.90;;
68614;SDS011;55593;51.994;5.882;2022-07-22T07:30:55;7.15;;;2.45;;
68614;SDS011;55593;51.994;5.882;2022-07-22T07:33:27;6.88;;;2.45;;
68614;SDS011;55593;51.994;5.882;2022-07-22T07:35:57;9.77;;;2.72;;
68614;SDS011;55593;51.994;5.882;2022-07-22T07:38:35;16.58;;;3.65;;
68614;SDS011;55593;51.994;5.882;2022-07-22T07:41:08;9.45;;;2.95;;
68614;SDS011;55593;51.994;5.882;2022-07-22T07:43:39;8.68;;;2.72;;
68614;SDS011;55593;51.994;5.882;2022-07-22T07:46:08;5.80;;;2.30;;
68614;SDS011;55593;51.994;5.882;2022-07-22T07:48:41;12.82;;;2.67;;
68614;SDS011;55593;51.994;5.882;2022-07-22T07:51:11;8.52;;;2.72;;
68614;SDS011;55593;51.994;5.882;2022-07-22T07:53:40;9.77;;;2.53;;
68614;SDS011;55593;51.994;5.882;2022-07-22T07:56:10;10.20;;;2.58;;
68614;SDS011;55593;51.994;5.882;2022-07-22T07:58:39;9.00;;;2.10;;
68614;SDS011;55593;51.994;5.882;2022-07-22T08:01:09;5.60;;;2.45;;
68614;SDS011;55593;51.994;5.882;2022-07-22T08:03:41;20.15;;;2.83;;
68614;SDS011;55593;51.994;5.882;2022-07-22T08:06:10;9.43;;;3.10;;
68614;SDS011;55593;51.994;5.882;2022-07-22T08:08:39;13.40;;;3.08;;
68614;SDS011;55593;51.994;5.882;2022-07-22T08:11:16;9.02;;;2.88;;
68614;SDS011;55593;51.994;5.882;2022-07-22T08:13:56;5.78;;;2.40;;
68614;SDS011;55593;51.994;5.882;2022-07-22T08:16:51;13.88;;;2.78;;
68614;SDS011;55593;51.994;5.882;2022-07-22T08:19:26;6.80;;;2.50;;
68614;SDS011;55593;51.994;5.882;2022-07-22T08:21:56;9.05;;;2.45;;
68614;SDS011;55593;51.994;5.882;2022-07-22T08:24:31;11.70;;;2.30;;
68614;SDS011;55593;51.994;5.882;2022-07-22T08:27:09;6.80;;;2.85;;
68614;SDS011;55593;51.994;5.882;2022-07-22T08:29:38;5.90;;;2.42;;
68614;SDS011;55593;51.994;5.882;2022-07-22T08:32:07;10.20;;;2.63;;
68614;SDS011;55593;51.994;5.882;2022-07-22T08:34:39;8.75;;;3.08;;
68614;SDS011;55593;51.994;5.882;2022-07-22T08:37:08;8.73;;;3.00;;
68614;SDS011;55593;51.994;5.882;2022-07-22T08:39:37;16.30;;;3.30;;
68614;SDS011;55593;51.994;5.882;2022-07-22T08:42:07;9.95;;;2.70;;
68614;SDS011;55593;51.994;5.882;2022-07-22T08:44:37;10.25;;;3.00;;
68614;SDS011;55593;51.994;5.882;2022-07-22T08:47:06;11.45;;;2.90;;
68614;SDS011;55593;51.994;5.882;2022-07-22T08:50:13;17.63;;;3.42;;
68614;SDS011;55593;51.994;5.882;2022-07-22T08:52:58;10.75;;;3.97;;
68614;SDS011;55593;51.994;5.882;2022-07-22T08:55:28;8.93;;;2.92;;
68614;SDS011;55593;51.994;5.882;2022-07-22T08:57:57;8.90;;;3.03;;
68614;SDS011;55593;51.994;5.882;2022-07-22T09:00:26;12.77;;;3.70;;
68614;SDS011;55593;51.994;5.882;2022-07-22T09:02:55;18.40;;;3.65;;
68614;SDS011;55593;51.994;5.882;2022-07-22T09:05:32;14.30;;;2.95;;
68614;SDS011;55593;51.994;5.882;2022-07-22T09:08:04;8.35;;;2.78;;
68614;SDS011;55593;51.994;5.882;2022-07-22T09:10:49;13.43;;;2.78;;
68614;SDS011;55593;51.994;5.882;2022-07-22T09:13:44;8.02;;;2.42;;
68614;SDS011;55593;51.994;5.882;2022-07-22T09:16:39;9.68;;;2.55;;
68614;SDS011;55593;51.994;5.882;2022-07-22T09:19:48;8.88;;;2.65;;
68614;SDS011;55593;51.994;5.882;2022-07-22T09:22:38;14.70;;;3.30;;
68614;SDS011;55593;51.994;5.882;2022-07-22T09:25:19;9.18;;;2.33;;
68614;SDS011;55593;51.994;5.882;2022-07-22T09:28:13;7.70;;;2.20;;
68614;SDS011;55593;51.994;5.882;2022-07-22T09:31:02;7.03;;;2.55;;
68614;SDS011;55593;51.994;5.882;2022-07-22T09:33:36;12.15;;;2.53;;
68614;SDS011;55593;51.994;5.882;2022-07-22T09:36:19;8.75;;;2.50;;
68614;SDS011;55593;51.994;5.882;2022-07-22T09:38:52;14.57;;;2.88;;
68614;SDS011;55593;51.994;5.882;2022-07-22T09:41:21;10.95;;;2.60;;
68614;SDS011;55593;51.994;5.882;2022-07-22T09:43:51;7.60;;;2.17;;
68614;SDS011;55593;51.994;5.882;2022-07-22T09:46:32;7.63;;;2.92;;
68614;SDS011;55593;51.994;5.882;2022-07-22T09:49:31;10.77;;;2.42;;
68614;SDS011;55593;51.994;5.882;2022-07-22T09:52:26;9.02;;;2.42;;
68614;SDS011;55593;51.994;5.882;2022-07-22T09:55:07;6.93;;;1.83;;
68614;SDS011;55593;51.994;5.882;2022-07-22T09:57:39;6.43;;;2.15;;
68614;SDS011;55593;51.994;5.882;2022-07-22T10:00:09;5.80;;;1.65;;
68614;SDS011;55593;51.994;5.882;2022-07-22T10:02:50;6.47;;;1.95;;
68614;SDS011;55593;51.994;5.882;2022-07-22T10:05:22;5.72;;;1.90;;
68614;SDS011;55593;51.994;5.882;2022-07-22T10:07:54;4.95;;;1.90;;
68614;SDS011;55593;51.994;5.882;2022-07-22T10:10:26;7.50;;;2.15;;
68614;SDS011;55593;51.994;5.882;2022-07-22T10:12:57;8.60;;;2.05;;
68614;SDS011;55593;51.994;5.882;2022-07-22T10:15:28;7.03;;;1.80;;
68614;SDS011;55593;51.994;5.882;2022-07-22T10:17:59;9.02;;;2.22;;
68614;SDS011;55593;51.994;5.882;2022-07-22T10:20:31;9.00;;;1.90;;
68614;SDS011;55593;51.994;5.882;2022-07-22T10:23:00;4.57;;;1.90;;
68614;SDS011;55593;51.994;5.882;2022-07-22T10:25:47;9.52;;;1.90;;
68614;SDS011;55593;51.994;5.882;2022-07-22T10:28:22;10.45;;;1.88;;
68614;SDS011;55593;51.994;5.882;2022-07-22T10:30:52;6.18;;;1.70;;
68614;SDS011;55593;51.994;5.882;2022-07-22T10:33:24;5.38;;;1.90;;
68614;SDS011;55593;51.994;5.882;2022-07-22T10:35:58;6.50;;;1.95;;
68614;SDS011;55593;51.994;5.882;2022-07-22T10:38:29;4.20;;;1.63;;
68614;SDS011;55593;51.994;5.882;2022-07-22T10:41:02;9.18;;;3.58;;
68614;SDS011;55593;51.994;5.882;2022-07-22T10:43:45;5.80;;;2.40;;
68614;SDS011;55593;51.994;5.882;2022-07-22T10:46:15;10.23;;;2.42;;
68614;SDS011;55593;51.994;5.882;2022-07-22T10:48:44;4.63;;;1.88;;
68614;SDS011;55593;51.994;5.882;2022-07-22T10:51:15;8.80;;;2.38;;
68614;SDS011;55593;51.994;5.882;2022-07-22T10:53:45;6.35;;;2.15;;
68614;SDS011;55593;51.994;5.882;2022-07-22T10:56:20;9.13;;;2.20;;
68614;SDS011;55593;51.994;5.882;2022-07-22T11:01:43;5.43;;;2.10;;
68614;SDS011;55593;51.994;5.882;2022-07-22T11:04:14;5.93;;;1.90;;
68614;SDS011;55593;51.994;5.882;2022-07-22T11:06:43;5.53;;;2.15;;
68614;SDS011;55593;51.994;5.882;2022-07-22T11:09:13;7.65;;;2.00;;
68614;SDS011;55593;51.994;5.882;2022-07-22T11:11:46;7.72;;;2.33;;
68614;SDS011;55593;51.994;5.882;2022-07-22T11:14:17;8.88;;;3.25;;
68614;SDS011;55593;51.994;5.882;2022-07-22T11:16:50;6.45;;;2.22;;
68614;SDS011;55593;51.994;5.882;2022-07-22T11:19:21;8.88;;;2.30;;
68614;SDS011;55593;51.994;5.882;2022-07-22T11:21:52;11.02;;;2.65;;
68614;SDS011;55593;51.994;5.882;2022-07-22T11:24:22;10.13;;;2.70;;
68614;SDS011;55593;51.994;5.882;2022-07-22T11:26:55;7.78;;;2.22;;
68614;SDS011;55593;51.994;5.882;2022-07-22T11:29:25;9.65;;;2.45;;
68614;SDS011;55593;51.994;5.882;2022-07-22T11:31:56;9.82;;;2.20;;
68614;SDS011;55593;51.994;5.882;2022-07-22T11:34:27;7.15;;;2.72;;
68614;SDS011;55593;51.994;5.882;2022-07-22T11:36:57;7.72;;;2.15;;
68614;SDS011;55593;51.994;5.882;2022-07-22T11:39:26;4.22;;;2.00;;
68614;SDS011;55593;51.994;5.882;2022-07-22T11:41:59;3.72;;;1.77;;
68614;SDS011;55593;51.994;5.882;2022-07-22T11:44:29;5.82;;;2.10;;
68614;SDS011;55593;51.994;5.882;2022-07-22T11:46:59;9.25;;;2.25;;
68614;SDS011;55593;51.994;5.882;2022-07-22T11:49:29;6.55;;;2.20;;
68614;SDS011;55593;51.994;5.882;2022-07-22T11:51:59;7.97;;;2.20;;
68614;SDS011;55593;51.994;5.882;2022-07-22T11:54:28;6.22;;;1.98;;
68614;SDS011;55593;51.994;5.882;2022-07-22T11:57:00;10.05;;;3.65;;
68614;SDS011;55593;51.994;5.882;2022-07-22T11:59:30;6.57;;;2.17;;
68614;SDS011;55593;51.994;5.882;2022-07-22T12:01:59;6.93;;;2.28;;
68614;SDS011;55593;51.994;5.882;2022-07-22T12:04:28;8.98;;;2.22;;
68614;SDS011;55593;51.994;5.882;2022-07-22T12:06:58;8.43;;;2.10;;
68614;SDS011;55593;51.994;5.882;2022-07-22T12:09:30;7.72;;;1.92;;
68614;SDS011;55593;51.994;5.882;2022-07-22T12:12:02;6.45;;;2.13;;
68614;SDS011;55593;51.994;5.882;2022-07-22T12:14:33;6.25;;;2.00;;
68614;SDS011;55593;51.994;5.882;2022-07-22T12:17:03;7.22;;;2.10;;
68614;SDS011;55593;51.994;5.882;2022-07-22T12:19:36;3.72;;;1.90;;
68614;SDS011;55593;51.994;5.882;2022-07-22T12:22:07;10.05;;;2.10;;
68614;SDS011;55593;51.994;5.882;2022-07-22T12:24:40;6.68;;;2.00;;
68614;SDS011;55593;51.994;5.882;2022-07-22T12:27:14;5.70;;;2.03;;
68614;SDS011;55593;51.994;5.882;2022-07-22T12:29:45;6.85;;;2.33;;
68614;SDS011;55593;51.994;5.882;2022-07-22T12:32:16;8.63;;;2.00;;
68614;SDS011;55593;51.994;5.882;2022-07-22T12:34:47;10.07;;;1.80;;
68614;SDS011;55593;51.994;5.882;2022-07-22T12:37:25;4.85;;;2.10;;
68614;SDS011;55593;51.994;5.882;2022-07-22T12:39:57;3.45;;;1.70;;
68614;SDS011;55593;51.994;5.882;2022-07-22T12:42:31;8.65;;;2.33;;
68614;SDS011;55593;51.994;5.882;2022-07-22T12:45:03;9.73;;;2.47;;
68614;SDS011;55593;51.994;5.882;2022-07-22T12:47:43;9.38;;;2.20;;
68614;SDS011;55593;51.994;5.882;2022-07-22T12:50:18;12.55;;;2.47;;
68614;SDS011;55593;51.994;5.882;2022-07-22T12:52:49;4.30;;;1.95;;
68614;SDS011;55593;51.994;5.882;2022-07-22T12:55:18;6.32;;;2.03;;
68614;SDS011;55593;51.994;5.882;2022-07-22T12:57:50;5.30;;;2.25;;
68614;SDS011;55593;51.994;5.882;2022-07-22T13:00:21;6.60;;;1.95;;
68614;SDS011;55593;51.994;5.882;2022-07-22T13:02:51;7.38;;;2.17;;
68614;SDS011;55593;51.994;5.882;2022-07-22T13:05:21;9.13;;;1.92;;
68614;SDS011;55593;51.994;5.882;2022-07-22T13:07:50;5.85;;;1.88;;
68614;SDS011;55593;51.994;5.882;2022-07-22T13:10:20;4.18;;;2.13;;
68614;SDS011;55593;51.994;5.882;2022-07-22T13:12:52;7.32;;;2.35;;
68614;SDS011;55593;51.994;5.882;2022-07-22T13:15:22;8.65;;;2.75;;
68614;SDS011;55593;51.994;5.882;2022-07-22T13:17:51;5.25;;;2.22;;
68614;SDS011;55593;51.994;5.882;2022-07-22T13:20:21;5.82;;;1.90;;
68614;SDS011;55593;51.994;5.882;2022-07-22T13:22:50;6.50;;;2.42;;
68614;SDS011;55593;51.994;5.882;2022-07-22T13:25:19;8.20;;;2.40;;
68614;SDS011;55593;51.994;5.882;2022-07-22T13:27:54;5.93;;;1.92;;
68614;SDS011;55593;51.994;5.882;2022-07-22T13:30:24;8.98;;;3.03;;
68614;SDS011;55593;51.994;5.882;2022-07-22T13:32:53;5.72;;;2.40;;
68614;SDS011;55593;51.994;5.882;2022-07-22T13:35:22;5.35;;;2.05;;
68614;SDS011;55593;51.994;5.882;2022-07-22T13:37:51;4.57;;;2.13;;
68614;SDS011;55593;51.994;5.882;2022-07-22T13:40:21;9.35;;;2.50;;
68614;SDS011;55593;51.994;5.882;2022-07-22T13:42:50;6.18;;;2.17;;
68614;SDS011;55593;51.994;5.882;2022-07-22T13:45:22;4.90;;;2.00;;
68614;SDS011;55593;51.994;5.882;2022-07-22T13:47:51;7.68;;;2.70;;
68614;SDS011;55593;51.994;5.882;2022-07-22T13:50:20;6.45;;;2.40;;
68614;SDS011;55593;51.994;5.882;2022-07-22T13:52:49;5.20;;;2.05;;
68614;SDS011;55593;51.994;5.882;2022-07-22T13:55:18;8.77;;;2.38;;
68614;SDS011;55593;51.994;5.882;2022-07-22T13:57:47;7.22;;;2.67;;
68614;SDS011;55593;51.994;5.882;2022-07-22T14:00:17;7.35;;;3.22;;
68614;SDS011;55593;51.994;5.882;2022-07-22T14:02:48;6.88;;;2.50;;
68614;SDS011;55593;51.994;5.882;2022-07-22T14:05:18;7.00;;;2.13;;
68614;SDS011;55593;51.994;5.882;2022-07-22T14:07:47;6.10;;;1.92;;
68614;SDS011;55593;51.994;5.882;2022-07-22T14:10:16;7.85;;;2.28;;
68614;SDS011;55593;51.994;5.882;2022-07-22T14:12:45;6.03;;;2.35;;
68614;SDS011;55593;51.994;5.882;2022-07-22T14:15:15;8.82;;;2.78;;
68614;SDS011;55593;51.994;5.882;2022-07-22T14:17:46;7.05;;;2.53;;
68614;SDS011;55593;51.994;5.882;2022-07-22T14:20:18;7.82;;;2.55;;
68614;SDS011;55593;51.994;5.882;2022-07-22T14:22:47;6.68;;;2.33;;
68614;SDS011;55593;51.994;5.882;2022-07-22T14:25:16;6.00;;;2.25;;
68614;SDS011;55593;51.994;5.882;2022-07-22T14:27:46;6.25;;;2.25;;
68614;SDS011;55593;51.994;5.882;2022-07-22T14:30:15;6.05;;;2.20;;
68614;SDS011;55593;51.994;5.882;2022-07-22T14:32:44;8.10;;;2.35;;
68614;SDS011;55593;51.994;5.882;2022-07-22T14:35:16;7.05;;;2.45;;
68614;SDS011;55593;51.994;5.882;2022-07-22T14:37:45;9.38;;;2.67;;
68614;SDS011;55593;51.994;5.882;2022-07-22T14:40:14;6.50;;;2.22;;
68614;SDS011;55593;51.994;5.882;2022-07-22T14:42:43;5.22;;;2.40;;
68614;SDS011;55593;51.994;5.882;2022-07-22T14:45:14;7.35;;;2.53;;
68614;SDS011;55593;51.994;5.882;2022-07-22T14:47:43;8.18;;;2.05;;
68614;SDS011;55593;51.994;5.882;2022-07-22T14:50:12;12.05;;;3.03;;
68614;SDS011;55593;51.994;5.882;2022-07-22T14:52:44;8.68;;;2.50;;
68614;SDS011;55593;51.994;5.882;2022-07-22T14:55:13;6.15;;;2.72;;
68614;SDS011;55593;51.994;5.882;2022-07-22T14:57:42;6.43;;;2.40;;
68614;SDS011;55593;51.994;5.882;2022-07-22T15:00:11;10.10;;;2.40;;
68614;SDS011;55593;51.994;5.882;2022-07-22T15:02:41;9.43;;;2.78;;
68614;SDS011;55593;51.994;5.882;2022-07-22T15:05:10;6.70;;;2.80;;
68614;SDS011;55593;51.994;5.882;2022-07-22T15:07:39;6.55;;;2.25;;
68614;SDS011;55593;51.994;5.882;2022-07-22T15:10:11;7.95;;;2.75;;
68614;SDS011;55593;51.994;5.882;2022-07-22T15:12:40;6.90;;;2.75;;